Time;durP1;ratioP1;P1;durP2;ratioP2;P2;SDS_P1;SDS_P2;PMS_P1;PMS_P2;Temp;Humidity;BMP_temperature;BMP_pressure;BME280_temperature;BME280_humidity;BME280_pressure;Samples;Min_cycle;Max_cycle;Signal;HPM_P1;HPM_P2
2021/10/24 00:02:05;;;;;;;;;;;;;;;5.60;65.88;99242.47;5014587;28;19972;-78
2021/10/24 00:04:31;;;;;;;;;;;;;;;5.61;65.65;99246.78;5014096;28;20172;-78
2021/10/24 00:06:56;;;;;;;;;;;;;;;5.60;66.41;99250.22;5014389;28;19976;-76
2021/10/24 00:09:22;;;;;;;;;;;;;;;5.61;65.80;99246.78;5013299;28;20028;-76
2021/10/24 00:11:47;;;;;;;;;;;;;;;5.60;65.81;99235.59;4997557;28;19928;-75
2021/10/24 00:14:13;;;;;;;;;;;;;;;5.61;66.68;99246.78;5013283;28;19927;-75
2021/10/24 00:16:38;;;;;;;;;;;;;;;5.63;66.17;99245.91;5014980;28;20365;-75
2021/10/24 00:19:04;;;;;;;;;;;;;;;5.66;66.75;99237.34;4997284;28;20409;-76
2021/10/24 00:21:30;;;;;;;;;;;;;;;5.68;66.07;99241.63;5015083;28;20304;-76
2021/10/24 00:23:55;;;;;;;;;;;;;;;5.67;66.51;99242.50;5013214;28;19983;-75
2021/10/24 00:26:21;;;;;;;;;;;;;;;5.69;65.79;99247.66;5013955;28;19996;-76
2021/10/24 00:28:47;;;;;;;;;;;;;;;5.67;65.83;99242.50;5013578;28;20022;-77
2021/10/24 00:31:12;;;;;;;;;;;;;;;5.67;66.01;99254.53;5016101;28;20389;-76
2021/10/24 00:33:38;;;;;;;;;;;;;;;5.69;66.56;99251.09;5016514;28;19921;-76
2021/10/24 00:36:03;;;;;;;;;;;;;;;5.72;66.07;99245.94;5019429;28;19944;-76
2021/10/24 00:38:29;;;;;;;;;;;;;;;5.71;66.20;99251.13;5016885;28;19929;-76
2021/10/24 00:40:54;;;;;;;;;;;;;;;5.71;66.13;99251.97;5016251;28;20364;-78
2021/10/24 00:43:20;;;;;;;;;;;;;;;5.75;66.66;99260.56;4982288;28;19925;-76
2021/10/24 00:45:46;;;;;;;;;;;;;;;5.69;65.97;99250.25;5030348;28;20043;-77
2021/10/24 00:48:11;;;;;;;;;;;;;;;5.65;66.01;99254.53;5037632;28;19913;-77
2021/10/24 00:50:37;;;;;;;;;;;;;;;5.64;66.18;99251.94;5037119;28;19983;-77
2021/10/24 00:53:06;;;;;;;;;;;;;;;5.63;66.40;99256.25;5016480;28;19925;-76
2021/10/24 00:55:32;;;;;;;;;;;;;;;5.64;66.18;99257.97;5015179;28;19944;-77
2021/10/24 00:57:59;;;;;;;;;;;;;;;5.63;66.60;99251.06;5014513;28;20400;-76
2021/10/24 01:00:24;;;;;;;;;;;;;;;5.61;67.06;99262.25;5013807;28;19922;-76
2021/10/24 01:02:50;;;;;;;;;;;;;;;5.59;66.62;99264.84;4996795;28;19929;-76
2021/10/24 01:05:16;;;;;;;;;;;;;;;5.61;66.67;99257.97;5014897;28;20559;-75
2021/10/24 01:07:43;;;;;;;;;;;;;;;5.56;66.71;99260.53;5017581;28;19973;-76
2021/10/24 01:10:14;;;;;;;;;;;;;;;5.60;66.76;99260.53;5016302;28;19994;-76
2021/10/24 01:12:39;;;;;;;;;;;;;;;5.56;66.71;99255.38;5016001;28;20027;-76
2021/10/24 01:15:06;;;;;;;;;;;;;;;5.56;66.29;99255.38;5015997;28;20032;-76
2021/10/24 01:17:32;;;;;;;;;;;;;;;5.55;66.80;99255.38;5015185;28;20027;-76
2021/10/24 01:19:57;;;;;;;;;;;;;;;5.49;67.07;99258.81;5014442;28;19928;-76
2021/10/24 01:22:23;;;;;;;;;;;;;;;5.52;66.85;99257.94;5013234;28;19921;-76
2021/10/24 01:24:49;;;;;;;;;;;;;;;5.51;67.21;99259.69;5015475;28;20455;-75
2021/10/24 01:27:15;;;;;;;;;;;;;;;5.49;66.80;99260.50;5026323;28;19921;-75
2021/10/24 01:29:40;;;;;;;;;;;;;;;5.47;67.18;99262.22;5016226;28;19925;-76
2021/10/24 01:32:06;;;;;;;;;;;;;;;5.41;67.18;99261.34;5034967;28;19952;-77
2021/10/24 01:34:43;;;;;;;;;;;;;;;5.43;67.68;99263.94;5035139;28;20136;-76
2021/10/24 01:37:09;;;;;;;;;;;;;;;5.43;67.49;99261.34;5019791;28;19920;-77
2021/10/24 01:39:34;;;;;;;;;;;;;;;5.46;67.68;99265.66;5037059;28;19910;-76
2021/10/24 01:42:00;;;;;;;;;;;;;;;5.43;67.44;99263.94;5029260;28;19987;-76
2021/10/24 01:44:27;;;;;;;;;;;;;;;5.41;67.59;99266.50;5013138;28;20024;-76
2021/10/24 01:46:52;;;;;;;;;;;;;;;5.42;67.51;99267.38;5013110;28;19976;-75
2021/10/24 01:49:19;;;;;;;;;;;;;;;5.39;67.44;99263.06;5013007;28;20389;-76
2021/10/24 01:51:45;;;;;;;;;;;;;;;5.40;67.92;99267.38;5012528;28;19929;-76
2021/10/24 01:54:11;;;;;;;;;;;;;;;5.41;67.71;99274.25;5011849;28;19922;-75
2021/10/24 01:56:37;;;;;;;;;;;;;;;5.45;67.94;99271.66;5011657;28;19983;-75
2021/10/24 01:59:02;;;;;;;;;;;;;;;5.45;68.17;99263.94;4995208;28;20024;-75
2021/10/24 02:01:47;;;;;;;;;;;;;;;5.47;68.05;99276.00;5012088;28;20064;-75
2021/10/24 02:04:36;;;;;;;;;;;;;;;5.49;68.00;99274.28;5011888;28;20000;-76
2021/10/24 02:07:22;;;;;;;;;;;;;;;5.51;68.06;99282.03;5012743;28;19928;-77
2021/10/24 02:09:47;;;;;;;;;;;;;;;5.50;67.81;99270.84;5013459;28;19925;-76
2021/10/24 02:12:13;;;;;;;;;;;;;;;5.49;68.03;99273.41;5011611;28;19928;-77
2021/10/24 02:14:38;;;;;;;;;;;;;;;5.50;67.90;99270.84;5011292;28;19929;-75
2021/10/24 02:17:04;;;;;;;;;;;;;;;5.58;68.01;99276.03;5012778;28;20388;-77
2021/10/24 02:19:30;;;;;;;;;;;;;;;5.60;67.94;99284.66;5013098;28;19928;-75
2021/10/24 02:21:55;;;;;;;;;;;;;;;5.60;68.53;99279.50;4978657;28;19921;-75
2021/10/24 02:24:21;;;;;;;;;;;;;;;5.62;67.68;99280.34;5011115;28;19926;-75
2021/10/24 02:26:47;;;;;;;;;;;;;;;5.62;67.94;99277.78;5011406;28;19921;-77
2021/10/24 02:29:12;;;;;;;;;;;;;;;5.64;68.48;99277.78;5011341;28;19925;-76
2021/10/24 02:31:38;;;;;;;;;;;;;;;5.62;68.35;99280.34;5011666;28;19921;-76
2021/10/24 02:34:30;;;;;;;;;;;;;;;5.60;68.97;99276.91;5013334;28;19972;-76
2021/10/24 02:37:08;;;;;;;;;;;;;;;5.63;67.99;99276.88;5014554;28;20408;-77
2021/10/24 02:39:34;;;;;;;;;;;;;;;5.66;68.35;99283.81;5011733;28;19921;-76
2021/10/24 02:42:00;;;;;;;;;;;;;;;5.65;68.09;99289.81;5011521;28;19921;-76
2021/10/24 02:44:25;;;;;;;;;;;;;;;5.67;68.74;99285.53;5011343;28;19928;-76
2021/10/24 02:46:52;;;;;;;;;;;;;;;5.68;68.69;99289.84;5011620;28;20016;-77
2021/10/24 02:49:19;;;;;;;;;;;;;;;5.70;68.47;99293.28;4994990;28;19925;-76
2021/10/24 02:51:50;;;;;;;;;;;;;;;5.72;68.13;99291.56;5012076;28;19921;-77
2021/10/24 02:54:16;;;;;;;;;;;;;;;5.72;68.12;99292.41;5018457;28;20091;-74
2021/10/24 02:56:42;;;;;;;;;;;;;;;5.74;68.70;99289.81;5035991;28;19933;-75
2021/10/24 02:59:07;;;;;;;;;;;;;;;5.76;67.94;99295.00;5030199;28;19955;-75
2021/10/24 03:01:33;;;;;;;;;;;;;;;5.79;68.00;99289.88;5013515;28;19922;-75
2021/10/24 03:03:59;;;;;;;;;;;;;;;5.79;68.04;99292.44;5014590;28;19922;-77
2021/10/24 03:06:25;;;;;;;;;;;;;;;5.80;68.16;99292.44;5012415;28;19977;-76
2021/10/24 03:08:54;;;;;;;;;;;;;;;5.81;68.19;99293.31;5011697;28;19932;-76
2021/10/24 03:11:20;;;;;;;;;;;;;;;5.79;68.31;99287.28;4979035;28;20023;-76
2021/10/24 03:13:45;;;;;;;;;;;;;;;5.79;68.34;99287.28;4996765;28;19928;-77
2021/10/24 03:16:11;;;;;;;;;;;;;;;5.80;68.55;99289.84;5015463;28;20385;-78
2021/10/24 03:18:36;;;;;;;;;;;;;;;5.80;68.04;99291.59;5015682;28;19960;-77
2021/10/24 03:21:02;;;;;;;;;;;;;;;5.77;67.67;99284.69;4999141;28;19976;-77
2021/10/24 03:23:28;;;;;;;;;;;;;;;5.80;68.81;99294.16;5014965;28;19925;-76
2021/10/24 03:25:56;;;;;;;;;;;;;;;5.79;68.69;99285.53;5014665;28;20019;-78
2021/10/24 03:28:22;;;;;;;;;;;;;;;5.80;68.15;99287.28;5013892;28;19968;-76
2021/10/24 03:30:47;;;;;;;;;;;;;;;5.79;68.51;99284.69;5014770;28;19925;-77
2021/10/24 03:33:13;;;;;;;;;;;;;;;5.81;68.20;99301.06;4997676;28;19976;-77
2021/10/24 03:35:39;;;;;;;;;;;;;;;5.84;68.21;99298.50;5014017;28;19921;-76
2021/10/24 03:38:05;;;;;;;;;;;;;;;5.82;68.19;99300.19;5013818;28;20453;-77
2021/10/24 03:40:30;;;;;;;;;;;;;;;5.83;68.14;99304.50;4998051;28;19921;-76
2021/10/24 03:42:56;;;;;;;;;;;;;;;5.83;68.71;99304.50;5014112;28;20370;-76
2021/10/24 03:45:21;;;;;;;;;;;;;;;5.82;68.34;99308.78;5015601;28;20024;-77
2021/10/24 03:47:47;;;;;;;;;;;;;;;5.80;67.84;99314.81;4999487;28;19921;-76
2021/10/24 03:50:13;;;;;;;;;;;;;;;5.73;67.79;99309.63;4984260;28;19930;-77
2021/10/24 03:52:40;;;;;;;;;;;;;;;5.68;68.24;99311.34;5017244;28;19928;-75
2021/10/24 03:55:11;;;;;;;;;;;;;;;5.68;68.12;99308.75;5015424;28;19921;-74
2021/10/24 03:57:41;;;;;;;;;;;;;;;5.66;68.11;99313.03;5017236;28;19979;-77
2021/10/24 04:00:10;;;;;;;;;;;;;;;5.65;68.67;99311.31;5005556;28;19921;-75
2021/10/24 04:02:51;;;;;;;;;;;;;;;5.66;68.43;99313.03;5018528;28;19927;-75
2021/10/24 04:05:17;;;;;;;;;;;;;;;5.65;69.10;99311.31;5001665;28;19921;-77
2021/10/24 04:07:43;;;;;;;;;;;;;;;5.63;67.87;99325.94;5017522;28;20355;-75
2021/10/24 04:10:08;;;;;;;;;;;;;;;5.59;68.82;99316.47;5016833;28;19933;-76
2021/10/24 04:12:35;;;;;;;;;;;;;;;5.55;68.26;99325.06;5018107;28;20023;-76
2021/10/24 04:15:03;;;;;;;;;;;;;;;5.57;67.97;99331.94;4985880;28;19925;-76
2021/10/24 04:17:28;;;;;;;;;;;;;;;5.55;68.22;99325.91;5018794;28;19922;-76
2021/10/24 04:19:54;;;;;;;;;;;;;;;5.57;67.91;99337.09;5017813;28;19948;-75
2021/10/24 04:22:19;;;;;;;;;;;;;;;5.55;67.64;99335.38;4984157;28;19921;-77
2021/10/24 04:24:45;;;;;;;;;;;;;;;5.50;68.38;99340.53;5017180;28;19976;-76
2021/10/24 04:27:11;;;;;;;;;;;;;;;5.46;68.00;99343.97;5017891;28;20401;-76
2021/10/24 04:29:37;;;;;;;;;;;;;;;5.39;68.24;99345.66;5018237;28;19926;-76
2021/10/24 04:32:03;;;;;;;;;;;;;;;5.38;68.59;99348.22;5002083;28;20315;-75
2021/10/24 04:34:28;;;;;;;;;;;;;;;5.35;68.31;99354.22;5018889;28;19921;-77
2021/10/24 04:36:55;;;;;;;;;;;;;;;5.33;68.46;99361.09;5016270;28;19971;-75
2021/10/24 04:39:21;;;;;;;;;;;;;;;5.32;68.44;99358.50;5012577;28;20032;-75
2021/10/24 04:41:46;;;;;;;;;;;;;;;5.34;68.34;99360.25;5013829;28;19928;-77
2021/10/24 04:44:12;;;;;;;;;;;;;;;5.32;68.94;99359.38;5013039;28;20059;-76
2021/10/24 04:46:38;;;;;;;;;;;;;;;5.34;68.35;99357.66;5013375;28;19928;-77
2021/10/24 04:49:04;;;;;;;;;;;;;;;5.35;68.47;99364.53;5014003;28;19925;-77
2021/10/24 04:51:33;;;;;;;;;;;;;;;5.37;68.76;99362.84;5013403;28;20012;-76
2021/10/24 04:53:58;;;;;;;;;;;;;;;5.42;68.38;99376.59;4997054;28;20364;-76
2021/10/24 04:56:24;;;;;;;;;;;;;;;5.42;68.64;99379.19;4980865;28;20308;-76
2021/10/24 04:58:50;;;;;;;;;;;;;;;5.43;69.11;99383.50;5015320;28;19921;-75
2021/10/24 05:01:15;;;;;;;;;;;;;;;5.52;69.32;99387.00;5030238;28;19957;-77
2021/10/24 05:03:42;;;;;;;;;;;;;;;5.55;68.76;99387.00;5037753;28;20581;-77
2021/10/24 05:06:08;;;;;;;;;;;;;;;5.54;68.46;99390.44;5036176;28;19979;-76
2021/10/24 05:08:38;;;;;;;;;;;;;;;5.54;68.60;99386.13;5016929;28;19967;-76
2021/10/24 05:11:04;;;;;;;;;;;;;;;5.61;68.80;99397.38;4997472;28;19944;-77
2021/10/24 05:13:33;;;;;;;;;;;;;;;5.67;68.97;99407.72;5013860;28;19921;-77
2021/10/24 05:16:00;;;;;;;;;;;;;;;5.75;68.45;99397.41;5012931;28;19921;-77
2021/10/24 05:18:28;;;;;;;;;;;;;;;5.86;69.08;99402.63;5012890;28;19968;-76
2021/10/24 05:20:54;;;;;;;;;;;;;;;5.93;68.45;99403.53;4998804;28;20592;-75
2021/10/24 05:23:22;;;;;;;;;;;;;;;6.00;69.03;99406.16;4997580;28;20054;-77
2021/10/24 05:25:48;;;;;;;;;;;;;;;6.08;67.76;99413.94;4995767;28;20290;-76
2021/10/24 05:28:17;;;;;;;;;;;;;;;6.11;68.36;99406.22;4980198;28;20012;-75
2021/10/24 05:30:44;;;;;;;;;;;;;;;6.15;68.73;99412.22;5012990;28;19956;-77
2021/10/24 05:33:10;;;;;;;;;;;;;;;6.22;68.61;99415.69;5017513;28;19941;-77
2021/10/24 05:36:04;;;;;;;;;;;;;;;6.29;67.68;99407.94;5016506;28;19921;-78
2021/10/24 05:38:35;;;;;;;;;;;;;;;6.31;68.29;99410.56;5011752;28;20023;-77
2021/10/24 05:41:09;;;;;;;;;;;;;;;6.41;68.18;99416.59;5013261;28;19957;-77
2021/10/24 05:43:37;;;;;;;;;;;;;;;6.48;67.79;99421.78;4995619;28;20023;-78
2021/10/24 05:46:14;;;;;;;;;;;;;;;6.50;67.38;99424.41;5012197;28;19968;-79
2021/10/24 05:48:54;;;;;;;;;;;;;;;6.54;67.17;99422.66;4995912;28;20032;-76
2021/10/24 05:51:28;;;;;;;;;;;;;;;6.63;67.81;99433.88;4995006;28;19921;-78
2021/10/24 05:54:04;;;;;;;;;;;;;;;6.72;67.28;99435.63;4979940;28;19921;-77
2021/10/24 05:56:39;;;;;;;;;;;;;;;6.76;67.13;99441.63;5011898;28;20420;-77
2021/10/24 05:59:06;;;;;;;;;;;;;;;6.79;67.05;99454.56;4979624;28;20003;-78
2021/10/24 06:01:40;;;;;;;;;;;;;;;6.75;66.71;99451.13;5011478;28;19956;-78
2021/10/24 06:04:24;;;;;;;;;;;;;;;6.72;66.83;99455.44;5011447;28;20009;-78
2021/10/24 06:07:09;;;;;;;;;;;;;;;6.74;66.73;99452.00;5011870;28;20002;-77
2021/10/24 06:09:49;;;;;;;;;;;;;;;6.76;66.83;99455.44;5011105;28;20555;-78
2021/10/24 06:15:16;;;;;;;;;;;;;;;6.70;66.40;99467.50;4983255;28;19928;-77
2021/10/24 06:17:45;;;;;;;;;;;;;;;6.73;66.41;99472.69;5012339;28;19976;-76
2021/10/24 06:20:11;;;;;;;;;;;;;;;6.78;66.81;99479.59;5012111;28;20026;-77
2021/10/24 06:22:37;;;;;;;;;;;;;;;6.84;66.68;99478.72;5009979;28;19925;-77
2021/10/24 06:25:06;;;;;;;;;;;;;;;6.85;66.07;99474.41;5010580;28;19972;-77
2021/10/24 06:27:34;;;;;;;;;;;;;;;6.82;66.21;99475.28;5010335;28;19929;-77
2021/10/24 06:30:00;;;;;;;;;;;;;;;6.80;65.72;99477.00;5009949;28;20024;-78
2021/10/24 06:33:01;;;;;;;;;;;;;;;6.82;66.48;99482.19;4989986;28;20008;-76
2021/10/24 06:35:45;;;;;;;;;;;;;;;6.91;66.16;99493.41;5011465;28;19921;-77
2021/10/24 06:38:42;;;;;;;;;;;;;;;6.98;65.34;99495.97;5014941;28;19921;-77
2021/10/24 06:41:28;;;;;;;;;;;;;;;6.76;65.71;99451.97;5014054;28;20028;-75
2021/10/24 06:44:05;;;;;;;;;;;;;;;7.03;65.60;99497.72;5015198;28;19921;-75
2021/10/24 06:46:53;;;;;;;;;;;;;;;7.05;65.78;99503.78;5027844;28;19937;-76
2021/10/24 06:49:37;;;;;;;;;;;;;;;7.05;64.90;99497.72;5019325;28;19926;-74
2021/10/24 06:52:23;;;;;;;;;;;;;;;7.08;64.88;99501.16;5006878;28;19925;-75
2021/10/24 06:55:04;;;;;;;;;;;;;;;7.34;65.40;99502.88;5016263;28;19922;-77
2021/10/24 06:57:52;;;;;;;;;;;;;;;7.52;64.69;99507.19;5015261;28;20005;-77
2021/10/24 07:00:43;;;;;;;;;;;;;;;7.47;64.15;99505.50;5015410;28;19922;-74
2021/10/24 07:03:30;;;;;;;;;;;;;;;7.45;64.60;99513.25;5018964;28;19968;-75
2021/10/24 07:06:16;;;;;;;;;;;;;;;7.57;64.45;99509.78;5017328;28;20500;-75
2021/10/24 07:09:00;;;;;;;;;;;;;;;7.71;63.99;99522.72;5028384;28;19976;-75
2021/10/24 07:11:26;;;;;;;;;;;;;;;7.71;63.58;99525.31;5027388;28;19983;-79
2021/10/24 07:13:52;;;;;;;;;;;;;;;7.71;63.65;99532.22;5021201;28;20048;-77
2021/10/24 07:16:19;;;;;;;;;;;;;;;7.82;63.84;99528.75;5018043;28;20011;-76
2021/10/24 07:18:45;;;;;;;;;;;;;;;7.89;63.50;99523.53;5018192;28;20476;-77
2021/10/24 07:21:12;;;;;;;;;;;;;;;7.91;63.50;99526.97;5015536;28;19945;-77
2021/10/24 07:23:38;;;;;;;;;;;;;;;7.93;63.44;99530.44;5015838;28;19921;-75
2021/10/24 07:26:21;;;;;;;;;;;;;;;7.90;63.22;99535.63;5014977;28;19996;-79
2021/10/24 07:28:48;;;;;;;;;;;;;;;7.86;62.93;99539.06;5014541;28;20080;-76
2021/10/24 07:31:14;;;;;;;;;;;;;;;7.86;63.10;99536.50;5014655;28;20390;-76
2021/10/24 07:33:41;;;;;;;;;;;;;;;8.00;63.13;99532.16;5014248;28;20024;-77
2021/10/24 07:36:21;;;;;;;;;;;;;;;8.18;62.83;99544.19;5014700;28;19921;-78
2021/10/24 07:38:47;;;;;;;;;;;;;;;8.20;62.69;99549.38;5013685;28;19925;-77
2021/10/24 07:41:19;;;;;;;;;;;;;;;8.23;62.59;99554.56;5014718;28;19921;-77
2021/10/24 07:43:46;;;;;;;;;;;;;;;8.33;62.81;99550.19;4999167;28;19939;-76
2021/10/24 07:46:12;;;;;;;;;;;;;;;8.25;62.31;99513.94;5014499;28;20313;-79
2021/10/24 07:48:38;;;;;;;;;;;;;;;8.63;62.65;99544.03;5015645;28;19932;-77
2021/10/24 07:51:08;;;;;;;;;;;;;;;8.59;61.50;99547.53;4983188;28;19922;-80
2021/10/24 07:53:37;;;;;;;;;;;;;;;8.31;61.55;99526.84;5016413;28;20024;-75
2021/10/24 07:56:06;;;;;;;;;;;;;;;8.46;61.66;99557.06;5008784;28;19989;-75
2021/10/24 07:59:01;;;;;;;;;;;;;;;8.37;61.69;99563.13;5021457;28;19975;-77
2021/10/24 08:01:26;;;;;;;;;;;;;;;8.34;61.68;99565.72;5003273;28;19995;-77
2021/10/24 08:03:54;;;;;;;;;;;;;;;8.30;61.85;99576.97;5002776;28;19921;-79
2021/10/24 08:06:33;;;;;;;;;;;;;;;8.27;61.46;99577.00;5014090;28;19921;-78
2021/10/24 08:09:01;;;;;;;;;;;;;;;8.26;61.88;99577.88;5014163;28;20353;-78
2021/10/24 08:11:27;;;;;;;;;;;;;;;8.31;61.86;99585.63;4998039;28;19926;-75
2021/10/24 08:13:57;;;;;;;;;;;;;;;8.26;61.53;99580.47;5014912;28;19967;-78
2021/10/24 08:16:23;;;;;;;;;;;;;;;8.30;61.69;99582.16;5013646;28;19921;-80
2021/10/24 08:18:49;;;;;;;;;;;;;;;8.37;61.47;99581.28;5013541;28;19921;-79
2021/10/24 08:21:50;;;;;;;;;;;;;;;8.34;61.17;99585.63;5009325;28;19921;-76
2021/10/24 08:24:20;;;;;;;;;;;;;;;8.39;61.14;99587.34;5013478;28;19979;-78
2021/10/24 08:26:55;;;;;;;;;;;;;;;8.41;60.93;99588.19;5013005;28;19921;-79
2021/10/24 08:29:21;;;;;;;;;;;;;;;8.33;60.52;99595.13;5016415;28;19984;-76
2021/10/24 08:31:59;;;;;;;;;;;;;;;8.37;60.99;99598.59;5018182;28;19925;-80
2021/10/24 08:34:25;;;;;;;;;;;;;;;8.52;61.15;99602.88;5013637;28;20016;-77
2021/10/24 08:36:51;;;;;;;;;;;;;;;8.57;60.41;99601.13;5013161;28;19967;-77
2021/10/24 08:39:19;;;;;;;;;;;;;;;8.57;60.17;99606.31;5012778;28;19947;-76
2021/10/24 08:41:49;;;;;;;;;;;;;;;8.59;60.56;99607.16;5014234;28;20356;-79
2021/10/24 08:44:15;;;;;;;;;;;;;;;8.66;60.34;99614.06;5012138;28;20305;-74
2021/10/24 08:46:42;;;;;;;;;;;;;;;8.65;59.62;99612.34;5012257;28;20015;-77
2021/10/24 08:49:09;;;;;;;;;;;;;;;8.67;59.86;99612.31;5013144;28;20020;-77
2021/10/24 08:51:37;;;;;;;;;;;;;;;8.53;59.18;99622.75;5011733;28;19930;-78
2021/10/24 08:54:08;;;;;;;;;;;;;;;8.44;60.02;99627.09;4995426;28;19921;-77
2021/10/24 08:56:34;;;;;;;;;;;;;;;8.36;60.03;99626.22;5012074;28;19931;-78
2021/10/24 08:59:00;;;;;;;;;;;;;;;8.26;60.04;99629.72;5014375;28;19932;-78
2021/10/24 09:01:26;;;;;;;;;;;;;;;8.09;59.51;99640.13;5013741;28;20423;-76
2021/10/24 09:04:13;;;;;;;;;;;;;;;7.88;59.82;99643.56;5012433;28;19921;-76
2021/10/24 09:06:42;;;;;;;;;;;;;;;7.79;60.56;99647.03;5012598;28;19921;-77
2021/10/24 09:09:21;;;;;;;;;;;;;;;7.70;60.90;99653.06;5012275;28;19961;-78
2021/10/24 09:11:56;;;;;;;;;;;;;;;7.73;61.21;99653.09;5014390;28;19921;-78
2021/10/24 09:14:39;;;;;;;;;;;;;;;7.84;61.26;99653.09;5016401;28;20015;-76
2021/10/24 09:17:06;;;;;;;;;;;;;;;8.02;61.52;99653.94;5032339;28;19921;-76
2021/10/24 09:19:39;;;;;;;;;;;;;;;8.13;61.11;99659.97;5019801;28;19921;-78
2021/10/24 09:22:20;;;;;;;;;;;;;;;8.13;60.90;99655.66;4999869;28;19921;-78
2021/10/24 09:25:01;;;;;;;;;;;;;;;7.90;60.39;99662.56;4986479;28;19925;-76
2021/10/24 09:27:49;;;;;;;;;;;;;;;7.52;60.15;99664.28;4996303;28;19922;-76
2021/10/24 09:30:21;;;;;;;;;;;;;;;7.24;61.07;99667.69;5011396;28;19932;-79
2021/10/24 09:32:47;;;;;;;;;;;;;;;7.08;61.68;99689.19;5013057;28;19921;-75
2021/10/24 09:35:53;;;;;;;;;;;;;;;7.03;61.28;99689.19;4996362;28;19927;-81
2021/10/24 09:38:39;;;;;;;;;;;;;;;7.08;61.57;99695.22;5028243;28;19944;-80
2021/10/24 09:41:34;;;;;;;;;;;;;;;7.11;61.55;99699.56;5009075;28;20349;-79
2021/10/24 09:44:13;;;;;;;;;;;;;;;7.16;61.87;99708.22;5012516;28;19921;-77
2021/10/24 09:46:55;;;;;;;;;;;;;;;7.20;61.10;99724.63;5011407;28;19922;-80
2021/10/24 09:49:23;;;;;;;;;;;;;;;7.16;60.88;99715.09;5011636;28;19979;-78
2021/10/24 09:51:49;;;;;;;;;;;;;;;7.13;61.13;99725.44;4995255;28;19921;-73
2021/10/24 09:54:34;;;;;;;;;;;;;;;7.04;60.91;99729.72;4994885;28;19922;-80
2021/10/24 09:57:00;;;;;;;;;;;;;;;7.15;61.30;99727.19;5014917;28;19968;-78
2021/10/24 09:59:26;;;;;;;;;;;;;;;7.16;61.04;99733.22;5011880;28;19945;-76
2021/10/24 10:01:58;;;;;;;;;;;;;;;7.12;60.42;99737.53;5012884;28;19976;-77
2021/10/24 10:04:24;;;;;;;;;;;;;;;7.04;60.63;99742.66;4997086;28;19921;-79
2021/10/24 10:06:53;;;;;;;;;;;;;;;7.03;60.55;99748.69;4998044;28;19975;-75
2021/10/24 10:09:18;;;;;;;;;;;;;;;7.14;61.17;99745.28;5013262;28;20024;-77
2021/10/24 10:11:50;;;;;;;;;;;;;;;7.22;60.36;99744.44;5013943;28;20340;-77
2021/10/24 10:14:33;;;;;;;;;;;;;;;7.30;60.26;99746.22;5012543;28;20023;-80
2021/10/24 10:17:04;;;;;;;;;;;;;;;7.19;59.78;99743.59;5012743;28;20301;-78
2021/10/24 10:19:36;;;;;;;;;;;;;;;7.04;59.77;99760.78;5018968;28;20377;-78
2021/10/24 10:22:18;;;;;;;;;;;;;;;7.04;59.73;99753.03;5015773;28;19921;-77
2021/10/24 10:24:44;;;;;;;;;;;;;;;7.10;59.58;99767.69;5014378;28;19984;-75
2021/10/24 10:27:25;;;;;;;;;;;;;;;7.08;59.58;99767.69;5013674;28;19972;-75
2021/10/24 10:29:52;;;;;;;;;;;;;;;7.08;59.30;99778.03;5012094;28;19936;-78
2021/10/24 10:32:19;;;;;;;;;;;;;;;7.06;59.52;99769.38;5012497;28;20020;-77
2021/10/24 10:35:03;;;;;;;;;;;;;;;7.11;59.42;99777.19;5014016;28;19929;-76
2021/10/24 10:37:41;;;;;;;;;;;;;;;7.00;58.67;99784.91;5017888;28;19921;-78
2021/10/24 10:40:14;;;;;;;;;;;;;;;6.96;58.80;99795.19;5001123;28;19928;-80
2021/10/24 10:42:43;;;;;;;;;;;;;;;6.86;58.72;99805.50;5019594;28;19928;-75
2021/10/24 10:45:27;;;;;;;;;;;;;;;6.66;58.60;99814.88;5025063;28;19921;-75
2021/10/24 10:48:09;;;;;;;;;;;;;;;6.51;58.47;99823.34;5025768;28;19957;-73
2021/10/24 10:50:43;;;;;;;;;;;;;;;6.28;58.72;99845.59;5023603;28;19931;-78
2021/10/24 10:53:38;;;;;;;;;;;;;;;6.12;59.40;99843.69;5026873;28;19921;-74
2021/10/24 10:56:05;;;;;;;;;;;;;;;5.92;59.66;99839.16;5020058;28;20017;-75
2021/10/24 10:58:36;;;;;;;;;;;;;;;5.87;59.60;99851.13;5028567;28;19921;-74
2021/10/24 11:01:23;;;;;;;;;;;;;;;5.94;59.79;99847.78;5027638;28;19922;-74
2021/10/24 11:03:55;;;;;;;;;;;;;;;6.13;60.62;99851.47;5017410;28;19922;-78
2021/10/24 11:06:24;;;;;;;;;;;;;;;6.25;60.29;99862.75;5022146;28;19932;-77
2021/10/24 11:08:51;;;;;;;;;;;;;;;6.37;60.72;99855.13;5024930;28;19921;-75
2021/10/24 11:11:35;;;;;;;;;;;;;;;6.41;60.78;99858.59;5027518;28;19925;-76
2021/10/24 11:14:00;;;;;;;;;;;;;;;6.44;60.14;99859.50;5026550;28;20016;-74
2021/10/24 11:16:29;;;;;;;;;;;;;;;6.48;60.57;99869.00;5022683;28;20690;-76
2021/10/24 11:18:54;;;;;;;;;;;;;;;6.46;60.05;99867.28;5019285;28;19928;-74
2021/10/24 11:21:27;;;;;;;;;;;;;;;6.41;60.46;99881.88;5016868;28;19993;-75
2021/10/24 11:23:56;;;;;;;;;;;;;;;6.41;60.06;99882.72;5023879;28;19921;-73
2021/10/24 11:26:22;;;;;;;;;;;;;;;6.41;60.02;99887.03;5027520;28;19926;-74
2021/10/24 11:28:47;;;;;;;;;;;;;;;6.42;60.77;99894.78;5021790;28;19921;-75
2021/10/24 11:31:17;;;;;;;;;;;;;;;6.37;60.39;99891.31;4981857;28;19985;-74
2021/10/24 11:33:44;;;;;;;;;;;;;;;6.32;60.36;99898.16;4997902;28;19928;-77
2021/10/24 11:36:10;;;;;;;;;;;;;;;6.37;60.84;99901.66;5000898;28;19955;-78
2021/10/24 11:38:36;;;;;;;;;;;;;;;6.48;60.26;99899.19;5001099;28;19956;-77
2021/10/24 11:41:02;;;;;;;;;;;;;;;6.50;60.23;99907.81;5019225;28;20439;-75
2021/10/24 11:43:29;;;;;;;;;;;;;;;6.48;60.67;99902.63;5018133;28;19944;-75
2021/10/24 11:45:56;;;;;;;;;;;;;;;6.49;60.18;99911.25;5016377;28;19921;-78
2021/10/24 11:48:26;;;;;;;;;;;;;;;6.47;59.82;99921.56;5016809;28;20389;-74
2021/10/24 11:50:55;;;;;;;;;;;;;;;6.37;59.80;99927.50;5016387;28;19925;-77
2021/10/24 11:53:22;;;;;;;;;;;;;;;6.14;59.53;99922.97;5016139;28;19922;-76
2021/10/24 11:55:50;;;;;;;;;;;;;;;5.88;59.46;99938.97;5016041;28;19921;-75
2021/10/24 11:58:32;;;;;;;;;;;;;;;5.83;59.74;99940.63;5016708;28;19921;-79
2021/10/24 12:01:06;;;;;;;;;;;;;;;5.81;60.41;99934.56;5024071;28;19952;-74
2021/10/24 12:03:35;;;;;;;;;;;;;;;5.88;60.55;99954.47;5027002;28;19922;-77
2021/10/24 12:06:03;;;;;;;;;;;;;;;5.91;60.05;99952.78;5020567;28;19921;-75
2021/10/24 12:08:44;;;;;;;;;;;;;;;5.92;60.40;99954.53;5024033;28;20396;-75
2021/10/24 12:11:13;;;;;;;;;;;;;;;5.84;60.30;99968.19;5021138;28;19921;-76
2021/10/24 12:13:40;;;;;;;;;;;;;;;5.85;60.75;99976.78;5019133;28;19921;-76
2021/10/24 12:16:22;;;;;;;;;;;;;;;5.97;60.87;99976.09;5018113;28;19928;-78
2021/10/24 12:18:51;;;;;;;;;;;;;;;5.93;60.56;99971.75;5015759;28;19921;-77
2021/10/24 12:21:24;;;;;;;;;;;;;;;5.86;59.50;99991.44;4984277;28;19949;-76
2021/10/24 12:23:49;;;;;;;;;;;;;;;5.79;60.23;99987.06;5016326;28;19929;-76
2021/10/24 12:26:15;;;;;;;;;;;;;;;5.77;60.24;99993.94;5015980;28;19925;-75
2021/10/24 12:28:42;;;;;;;;;;;;;;;5.82;60.29;100006.03;5005756;28;19921;-74
2021/10/24 12:31:11;;;;;;;;;;;;;;;5.85;60.62;99995.75;5014874;28;20419;-77
2021/10/24 12:33:37;;;;;;;;;;;;;;;5.87;60.41;99999.25;5015472;28;19921;-76
2021/10/24 12:36:06;;;;;;;;;;;;;;;5.90;60.39;100003.56;5018680;28;19921;-77
2021/10/24 12:39:01;;;;;;;;;;;;;;;5.95;59.68;100012.25;5018579;28;19928;-76
2021/10/24 12:41:41;;;;;;;;;;;;;;;5.91;59.92;100018.22;5003614;28;19925;-76
2021/10/24 12:44:17;;;;;;;;;;;;;;;5.92;59.86;100026.84;5019643;28;19921;-75
2021/10/24 12:46:52;;;;;;;;;;;;;;;5.85;59.61;100033.63;5015049;28;19929;-75
2021/10/24 12:49:18;;;;;;;;;;;;;;;5.81;59.36;100047.38;4999400;28;19925;-75
2021/10/24 12:51:45;;;;;;;;;;;;;;;5.83;59.14;100037.94;5015495;28;19928;-79
2021/10/24 12:54:12;;;;;;;;;;;;;;;5.81;59.01;100048.22;5015668;28;19921;-78
2021/10/24 12:56:40;;;;;;;;;;;;;;;5.83;58.67;100063.75;5018005;28;19927;-75
2021/10/24 12:59:06;;;;;;;;;;;;;;;5.76;58.86;100070.50;5018000;28;20262;-75
2021/10/24 13:01:36;;;;;;;;;;;;;;;5.70;58.76;100071.28;5018473;28;19921;-78
2021/10/24 13:04:04;;;;;;;;;;;;;;;5.62;58.63;100074.59;5017595;28;20403;-74
2021/10/24 13:06:30;;;;;;;;;;;;;;;5.57;58.92;100077.97;5020310;28;19922;-74
2021/10/24 13:08:57;;;;;;;;;;;;;;;5.48;58.63;100082.13;5016816;28;19952;-75
2021/10/24 13:11:27;;;;;;;;;;;;;;;5.41;58.50;100086.31;5018151;28;19922;-75
2021/10/24 13:13:53;;;;;;;;;;;;;;;5.35;58.61;100091.38;5017030;28;19969;-74
2021/10/24 13:16:35;;;;;;;;;;;;;;;5.33;58.72;100091.38;5001552;28;20626;-75